createdAt,value
2023-09-27T00:00:09.343Z,101960.72
2023-09-27T00:02:36.785Z,101979.25
2023-09-27T00:05:08.266Z,101960.59
2023-09-27T00:07:36.422Z,101971.22
2023-09-27T00:10:07.174Z,101935.47
2023-09-27T00:12:34.322Z,101983.47
2023-09-27T00:15:04.152Z,101963.03
2023-09-27T00:17:33.948Z,101968.31
2023-09-27T00:20:06.515Z,101950.63
2023-09-27T00:22:33.886Z,101984.28
2023-09-27T00:25:05.912Z,101974.63
2023-09-27T00:27:33.427Z,101983.53
2023-09-27T00:30:00.786Z,101958.66
2023-09-27T00:32:27.764Z,101979.09
2023-09-27T00:34:54.517Z,101972.84
2023-09-27T00:37:26.216Z,101980.84
2023-09-27T00:39:52.969Z,101979.09
2023-09-27T00:42:19.809Z,101976.31
2023-09-27T00:44:46.812Z,101952.16
2023-09-27T00:47:15.318Z,101975.34
2023-09-27T00:49:42.113Z,101988.50
2023-09-27T00:52:09.532Z,101995.56
2023-09-27T00:54:36.797Z,101984.94
2023-09-27T00:57:07.046Z,101974.19
2023-09-27T00:59:34.675Z,101981.34
2023-09-27T01:02:01.516Z,101969.78
2023-09-27T01:04:28.536Z,101985.78
2023-09-27T01:06:57.617Z,101986.59
2023-09-27T01:09:24.619Z,101981.34
2023-09-27T01:11:51.662Z,101970.53
2023-09-27T01:14:18.509Z,101977.63
2023-09-27T01:16:45.250Z,101961.56
2023-09-27T01:19:12.102Z,101956.38
2023-09-27T01:21:38.828Z,101958.50
2023-09-27T01:24:07.720Z,101914.19
2023-09-27T01:26:38.071Z,101945.25
2023-09-27T01:29:09.671Z,101946.09
2023-09-27T01:31:38.659Z,101952.09
2023-09-27T01:34:05.520Z,101928.97
2023-09-27T01:36:34.533Z,101927.44
2023-09-27T01:39:01.223Z,101864.06
2023-09-27T01:41:27.951Z,101955.41
2023-09-27T01:43:54.850Z,101976.22
2023-09-27T01:46:21.566Z,101977.94
2023-09-27T01:48:49.555Z,101961.03
2023-09-27T01:51:18.605Z,101959.34
2023-09-27T01:53:45.659Z,101950.50
2023-09-27T01:56:12.410Z,101943.38
2023-09-27T01:58:39.140Z,101936.22
2023-09-27T02:01:06.028Z,101922.06
2023-09-27T02:03:33.042Z,101931.63
2023-09-27T02:05:59.909Z,101925.47
2023-09-27T02:08:29.152Z,101901.56
2023-09-27T02:10:55.932Z,101909.56
2023-09-27T02:13:22.719Z,101888.31
2023-09-27T02:15:49.539Z,101843.72
2023-09-27T02:18:16.333Z,101906.16
2023-09-27T02:20:43.080Z,101902.69
2023-09-27T02:23:11.894Z,101906.28
2023-09-27T02:25:38.824Z,101895.84
2023-09-27T02:28:06.080Z,101900.13
2023-09-27T02:30:33.643Z,101895.81
2023-09-27T02:33:00.427Z,101886.94
2023-09-27T02:35:27.270Z,101892.47
2023-09-27T02:37:54.217Z,101880.00
2023-09-27T02:40:23.253Z,101899.50
2023-09-27T02:42:50.032Z,101901.31
2023-09-27T02:45:16.938Z,101904.63
2023-09-27T02:47:47.899Z,101917.81
2023-09-27T02:50:16.333Z,101908.19
2023-09-27T02:52:45.260Z,101888.91
2023-09-27T02:55:12.467Z,101880.13
2023-09-27T02:57:39.602Z,101870.44
2023-09-27T03:00:10.013Z,101877.44
2023-09-27T03:02:38.405Z,101885.19
2023-09-27T03:05:09.089Z,101885.03
2023-09-27T03:07:36.357Z,101885.84
2023-09-27T03:10:10.008Z,101853.84
2023-09-27T03:12:36.841Z,101863.38
2023-09-27T03:15:04.419Z,101891.78
2023-09-27T03:17:33.482Z,101903.03
2023-09-27T03:20:00.452Z,101898.50
2023-09-27T03:22:30.007Z,101855.28
2023-09-27T03:24:56.750Z,101898.56
2023-09-27T03:27:23.438Z,101905.50
2023-09-27T03:29:50.234Z,101898.50
2023-09-27T03:32:16.976Z,101903.69
2023-09-27T03:34:43.728Z,101883.53
2023-09-27T03:37:12.543Z,101877.25
2023-09-27T03:39:39.285Z,101882.72
2023-09-27T03:42:06.156Z,101877.59
2023-09-27T03:44:33.050Z,101880.22
2023-09-27T03:46:59.981Z,101876.78
2023-09-27T03:49:27.142Z,101879.44
2023-09-27T03:51:58.636Z,101867.16
2023-09-27T03:54:25.309Z,101839.78
2023-09-27T03:56:52.400Z,101862.72
2023-09-27T03:59:19.574Z,101859.19
2023-09-27T04:01:48.695Z,101838.66
2023-09-27T04:04:18.203Z,101862.78
2023-09-27T04:06:48.003Z,101853.94
2023-09-27T04:09:14.709Z,101857.56
2023-09-27T04:11:41.468Z,101855.84
2023-09-27T04:14:08.671Z,101851.47
2023-09-27T04:16:35.441Z,101831.28
2023-09-27T04:19:02.170Z,101828.38
2023-09-27T04:21:29.966Z,101860.28
2023-09-27T04:23:57.946Z,101865.56
2023-09-27T04:26:28.093Z,101868.31
2023-09-27T04:28:55.211Z,101844.56
2023-09-27T04:31:25.199Z,101846.56
2023-09-27T04:33:52.701Z,101843.09
2023-09-27T04:36:22.093Z,101840.50
2023-09-27T04:38:50.506Z,101836.03
2023-09-27T04:41:19.134Z,101843.13
2023-09-27T04:43:48.142Z,101847.59
2023-09-27T04:46:15.683Z,101851.16
2023-09-27T04:48:42.415Z,101859.09
2023-09-27T04:51:09.993Z,101801.44
2023-09-27T04:53:39.913Z,101833.78
2023-09-27T04:56:07.863Z,101825.13
2023-09-27T04:58:37.705Z,101818.91
2023-09-27T05:01:07.607Z,101827.75
2023-09-27T05:03:35.048Z,101809.19
2023-09-27T05:06:02.057Z,101800.34
2023-09-27T05:08:28.929Z,101811.88
2023-09-27T05:10:57.546Z,101793.50
2023-09-27T05:13:24.491Z,101794.38
2023-09-27T05:15:54.040Z,101764.66
2023-09-27T05:18:24.005Z,101759.31
2023-09-27T05:20:51.019Z,101780.28
2023-09-27T05:23:20.084Z,101717.28
2023-09-27T05:25:47.774Z,101737.38
2023-09-27T05:28:14.506Z,101707.00
2023-09-27T05:30:43.201Z,101711.03
2023-09-27T05:33:09.949Z,101713.72
2023-09-27T05:35:36.769Z,101664.78
2023-09-27T05:38:04.570Z,101706.72
2023-09-27T05:40:32.595Z,101742.47
2023-09-27T05:43:00.701Z,101733.72
2023-09-27T05:45:31.485Z,101761.00
2023-09-27T05:48:00.666Z,101732.94
2023-09-27T05:50:27.407Z,101686.59
2023-09-27T05:52:54.148Z,101705.84
2023-09-27T05:55:21.375Z,101781.38
2023-09-27T05:57:48.050Z,101793.06
2023-09-27T06:00:27.576Z,101794.09
2023-09-27T06:02:54.685Z,101732.75
2023-09-27T06:05:22.010Z,101794.09
2023-09-27T06:07:49.798Z,101795.00
2023-09-27T06:10:17.553Z,101813.69
2023-09-27T06:12:44.418Z,101812.09
2023-09-27T06:15:12.049Z,101802.56
2023-09-27T06:17:41.459Z,101786.00
2023-09-27T06:20:09.976Z,101765.97
2023-09-27T06:22:36.757Z,101740.41
2023-09-27T06:25:03.917Z,101756.50
2023-09-27T06:27:30.612Z,101751.16
2023-09-27T06:30:00.446Z,101767.19
2023-09-27T06:32:29.335Z,101765.63
2023-09-27T06:34:56.591Z,101768.47
2023-09-27T06:37:25.341Z,101766.91
2023-09-27T06:39:52.105Z,101670.31
2023-09-27T06:42:20.533Z,101755.91
2023-09-27T06:44:47.408Z,101749.00
2023-09-27T06:47:16.504Z,101747.41
2023-09-27T06:49:43.247Z,101725.44
2023-09-27T06:52:09.966Z,101730.06
2023-09-27T06:54:36.684Z,101734.59
2023-09-27T06:57:06.644Z,101733.88
2023-09-27T06:59:36.051Z,101724.38
2023-09-27T07:02:05.302Z,101696.94
2023-09-27T07:04:32.019Z,101736.09
2023-09-27T07:06:58.928Z,101731.84
2023-09-27T07:09:25.710Z,101611.28
2023-09-27T07:11:52.389Z,101720.66
2023-09-27T07:14:21.271Z,101719.84
2023-09-27T07:17:00.794Z,101707.56
2023-09-27T07:19:32.811Z,101728.00
2023-09-27T07:22:02.531Z,101721.91
2023-09-27T07:24:31.635Z,101726.38
2023-09-27T07:27:00.903Z,101731.72
2023-09-27T07:29:28.680Z,101716.72
2023-09-27T07:31:56.075Z,101708.75
2023-09-27T07:34:22.779Z,101738.97
2023-09-27T07:36:49.541Z,101743.44
2023-09-27T07:39:17.112Z,101717.84
2023-09-27T07:41:48.804Z,101702.03
2023-09-27T07:44:19.308Z,101719.03
2023-09-27T07:46:46.091Z,101725.47
2023-09-27T07:49:13.007Z,101717.69
2023-09-27T07:51:39.809Z,101704.44
2023-09-27T07:54:09.666Z,101723.19
2023-09-27T07:56:41.640Z,101692.47
2023-09-27T07:59:08.490Z,101697.84
2023-09-27T08:01:35.392Z,101704.09
2023-09-27T08:04:11.935Z,101689.16
2023-09-27T08:06:39.891Z,101682.19
2023-09-27T08:09:20.381Z,101713.38
2023-09-27T08:11:56.981Z,101724.94
2023-09-27T08:14:23.777Z,101717.09
2023-09-27T08:16:54.974Z,101710.06
2023-09-27T08:19:25.872Z,101703.84
2023-09-27T08:21:52.586Z,101681.69
2023-09-27T08:24:21.384Z,101712.56
2023-09-27T08:26:48.713Z,101713.41
2023-09-27T08:29:19.799Z,101695.81
2023-09-27T08:31:49.046Z,101687.91
2023-09-27T08:34:16.238Z,101697.69
2023-09-27T08:36:42.985Z,101697.78
2023-09-27T08:39:10.847Z,101690.69
2023-09-27T08:41:39.437Z,101700.47
2023-09-27T08:44:07.200Z,101697.81
2023-09-27T08:46:37.610Z,101706.66
2023-09-27T08:49:10.001Z,101696.09
2023-09-27T08:51:40.063Z,101675.91
2023-09-27T08:54:06.841Z,101681.31
2023-09-27T08:56:34.268Z,101659.31
2023-09-27T08:59:04.823Z,101637.56
2023-09-27T09:01:34.711Z,101665.31
2023-09-27T09:04:01.672Z,101629.41
2023-09-27T09:06:29.381Z,101630.63
2023-09-27T09:08:58.440Z,101649.47
2023-09-27T09:11:26.482Z,101629.28
2023-09-27T09:14:06.565Z,101599.38
2023-09-27T09:16:41.585Z,101628.50
2023-09-27T09:21:57.118Z,101617.75
2023-09-27T09:24:24.052Z,101611.47
2023-09-27T09:27:06.013Z,101605.31
2023-09-27T09:29:48.276Z,101607.19
2023-09-27T09:32:19.706Z,101610.69
2023-09-27T09:34:51.003Z,101555.19
2023-09-27T09:37:20.757Z,101608.19
2023-09-27T09:39:52.366Z,101608.16
2023-09-27T09:42:37.768Z,101602.91
2023-09-27T09:45:11.397Z,101604.66
2023-09-27T09:47:43.294Z,101606.38
2023-09-27T09:50:18.672Z,101609.03
2023-09-27T09:52:59.885Z,101604.59
2023-09-27T09:55:48.634Z,101602.81
2023-09-27T09:58:43.955Z,101599.25
2023-09-27T10:01:13.998Z,101584.25
2023-09-27T10:03:49.496Z,101600.13
2023-09-27T10:06:40.910Z,101602.81
2023-09-27T10:09:17.830Z,101603.69
2023-09-27T10:11:47.926Z,101586.94
2023-09-27T10:14:17.985Z,101565.78
2023-09-27T10:16:46.429Z,101581.72
2023-09-27T10:19:14.425Z,101562.31
2023-09-27T10:22:07.960Z,101579.06
2023-09-27T10:24:38.749Z,101542.88
2023-09-27T10:27:05.699Z,101520.84
2023-09-27T10:29:32.611Z,101534.94
2023-09-27T10:32:02.299Z,101563.19
2023-09-27T10:34:28.981Z,101547.31
2023-09-27T10:37:17.298Z,101547.31
2023-09-27T10:40:20.834Z,101530.53
2023-09-27T10:42:51.314Z,101510.19
2023-09-27T10:45:18.724Z,101494.31
2023-09-27T10:47:50.998Z,101506.66
2023-09-27T10:50:28.995Z,101458.19
2023-09-27T10:52:56.524Z,101482.03
2023-09-27T10:55:23.646Z,101493.44
2023-09-27T10:57:50.637Z,101500.50
2023-09-27T11:00:19.544Z,101504.00
2023-09-27T11:02:46.263Z,101509.25
2023-09-27T11:05:13.280Z,101486.28
2023-09-27T11:07:47.713Z,101493.34
2023-09-27T11:10:34.307Z,101491.63
2023-09-27T11:13:15.725Z,101494.31
2023-09-27T11:15:43.349Z,101503.16
2023-09-27T11:18:11.701Z,101490.84
2023-09-27T11:20:41.509Z,101489.09
2023-09-27T11:23:08.619Z,101489.97
2023-09-27T11:25:39.257Z,101473.22
2023-09-27T11:28:06.460Z,101459.09
2023-09-27T11:30:36.238Z,101473.19
2023-09-27T11:33:07.415Z,101457.28
2023-09-27T11:35:34.990Z,101380.59
2023-09-27T11:38:14.805Z,101434.41
2023-09-27T11:40:44.778Z,101422.06
2023-09-27T11:43:13.672Z,101397.34
2023-09-27T11:45:43.993Z,101409.72
2023-09-27T11:48:11.147Z,101296.94
2023-09-27T11:50:38.856Z,101331.28
2023-09-27T11:53:08.368Z,101358.59
2023-09-27T11:55:37.603Z,101305.75
2023-09-27T11:58:04.573Z,101299.56
2023-09-27T12:00:31.484Z,101282.81
2023-09-27T12:02:59.153Z,101387.66
2023-09-27T12:05:27.233Z,101422.91
2023-09-27T12:07:54.374Z,101451.09
2023-09-27T12:10:21.272Z,101440.50
2023-09-27T12:12:50.902Z,101408.81
2023-09-27T12:15:19.943Z,101367.38
2023-09-27T12:17:49.376Z,101340.91
2023-09-27T12:20:31.543Z,101353.31
2023-09-27T12:23:04.145Z,101371.81
2023-09-27T12:25:30.884Z,101374.47
2023-09-27T12:27:59.892Z,101357.69
2023-09-27T12:30:26.607Z,101372.72
2023-09-27T12:32:53.762Z,101368.28
2023-09-27T12:35:25.319Z,101369.13
2023-09-27T12:37:56.945Z,101353.25
2023-09-27T12:40:25.942Z,101327.72
2023-09-27T12:42:55.164Z,101317.19
2023-09-27T12:45:21.933Z,101354.19
2023-09-27T12:47:48.712Z,101365.66
2023-09-27T12:50:27.936Z,101353.31
2023-09-27T12:52:57.721Z,101320.72
2023-09-27T12:55:26.634Z,101324.25
2023-09-27T12:57:53.417Z,101313.63
2023-09-27T13:00:20.701Z,101275.75
2023-09-27T13:02:47.613Z,101282.78
2023-09-27T13:05:14.506Z,101243.19
2023-09-27T13:07:44.819Z,101269.63
2023-09-27T13:10:13.895Z,101271.38
2023-09-27T13:12:43.906Z,101260.81
2023-09-27T13:15:11.720Z,101277.53
2023-09-27T13:17:41.016Z,101266.97
2023-09-27T13:20:11.792Z,101287.19
2023-09-27T13:22:38.708Z,101294.25
2023-09-27T13:25:13.215Z,101271.34
2023-09-27T13:27:40.999Z,101281.91
2023-09-27T13:30:11.315Z,101275.72
2023-09-27T13:32:42.992Z,101302.13
2023-09-27T13:35:09.690Z,101317.09
2023-09-27T13:37:36.585Z,101317.13
2023-09-27T13:40:14.166Z,101303.91
2023-09-27T13:42:42.275Z,101302.13
2023-09-27T13:45:13.487Z,101313.56
2023-09-27T13:47:40.409Z,101273.91
2023-09-27T13:50:07.910Z,101284.47
2023-09-27T13:52:38.049Z,101269.53
2023-09-27T13:55:07.410Z,101273.91
2023-09-27T13:57:34.203Z,101271.28
2023-09-27T14:00:00.987Z,101258.06
2023-09-27T14:02:27.826Z,101216.63
2023-09-27T14:04:55.125Z,101220.19
2023-09-27T14:07:22.085Z,101191.97
2023-09-27T14:09:50.949Z,101209.59
2023-09-27T14:12:17.698Z,101242.16
2023-09-27T14:14:47.158Z,101221.00
2023-09-27T14:17:13.888Z,101196.41
2023-09-27T14:19:43.982Z,101167.31
2023-09-27T14:22:13.139Z,101183.19
2023-09-27T14:24:39.798Z,101151.50
2023-09-27T14:27:09.196Z,101172.66
2023-09-27T14:29:36.423Z,101158.63
2023-09-27T14:32:07.415Z,101168.28
2023-09-27T14:37:08.172Z,101146.34
2023-09-27T14:39:39.945Z,101101.41
2023-09-27T14:42:07.363Z,101124.34
2023-09-27T14:44:33.977Z,101093.53
2023-09-27T14:47:00.809Z,101134.03
2023-09-27T14:49:31.238Z,101119.06
2023-09-27T14:51:57.953Z,101125.22
2023-09-27T14:54:24.677Z,101114.66
2023-09-27T14:56:53.964Z,101105.88
2023-09-27T14:59:22.864Z,101068.94
2023-09-27T15:01:49.629Z,101038.09
2023-09-27T15:04:19.174Z,101018.75
2023-09-27T15:06:50.591Z,100924.72
2023-09-27T15:09:19.499Z,100951.91
2023-09-27T15:11:48.406Z,100945.78
2023-09-27T15:14:20.353Z,100944.03
2023-09-27T15:16:47.182Z,100872.78
2023-09-27T15:19:16.451Z,100922.03
2023-09-27T15:21:43.255Z,100848.25
2023-09-27T15:24:11.126Z,100932.59
2023-09-27T15:26:37.820Z,100930.84
2023-09-27T15:29:04.442Z,100984.44
2023-09-27T15:31:31.456Z,100988.00
2023-09-27T15:33:58.374Z,100952.81
2023-09-27T15:36:28.379Z,100944.91
2023-09-27T15:38:55.023Z,100988.88
2023-09-27T15:41:21.814Z,101046.03
2023-09-27T15:43:50.974Z,101017.88
2023-09-27T15:46:18.166Z,100977.44
2023-09-27T15:48:45.017Z,100979.19
2023-09-27T15:51:16.841Z,100940.47
2023-09-27T15:53:43.671Z,100877.22
2023-09-27T15:56:13.135Z,100913.22
2023-09-27T15:58:40.075Z,100971.25
2023-09-27T16:01:08.007Z,100952.75
2023-09-27T16:03:35.850Z,101006.44
2023-09-27T16:06:05.300Z,100988.81
2023-09-27T16:08:32.556Z,100992.38
2023-09-27T16:11:01.818Z,101006.41
2023-09-27T16:13:31.493Z,101008.19
2023-09-27T16:16:00.843Z,101016.97
2023-09-27T16:18:27.696Z,101002.00
2023-09-27T16:20:57.393Z,100988.81
2023-09-27T16:23:24.149Z,100944.88
2023-09-27T16:25:51.529Z,101015.19
2023-09-27T16:28:19.247Z,101001.97
2023-09-27T16:30:46.849Z,101004.63
2023-09-27T16:33:15.971Z,101016.06
2023-09-27T16:35:43.053Z,101016.91
2023-09-27T16:38:12.731Z,101018.66
2023-09-27T16:40:47.178Z,101020.44
2023-09-27T16:43:13.874Z,100996.69
2023-09-27T16:45:43.802Z,101023.91
2023-09-27T16:48:10.656Z,101015.16
2023-09-27T16:50:37.345Z,101018.63
2023-09-27T16:53:05.653Z,100986.13
2023-09-27T16:55:38.292Z,101013.34
2023-09-27T16:58:06.314Z,101010.69
2023-09-27T17:00:33.268Z,100999.28
2023-09-27T17:03:04.851Z,100999.31
2023-09-27T17:05:31.854Z,101001.00
2023-09-27T17:07:58.988Z,101002.78
2023-09-27T17:10:25.942Z,101010.69
2023-09-27T17:12:52.705Z,101011.59
2023-09-27T17:15:20.880Z,101010.75
2023-09-27T17:17:47.958Z,101018.66
2023-09-27T17:20:14.889Z,101016.88
2023-09-27T17:22:44.436Z,100990.56
2023-09-27T17:25:12.229Z,101016.06
2023-09-27T17:27:39.010Z,101008.16
2023-09-27T17:30:08.983Z,100953.69
2023-09-27T17:32:36.900Z,100970.38
2023-09-27T17:35:06.808Z,100987.09
2023-09-27T17:37:33.713Z,101002.03
2023-09-27T17:40:01.936Z,100979.19
2023-09-27T17:42:28.846Z,100979.19
2023-09-27T17:44:57.999Z,100987.97
2023-09-27T17:47:24.698Z,100988.84
2023-09-27T17:49:51.428Z,100979.19
2023-09-27T17:52:20.284Z,100963.34
2023-09-27T17:54:49.470Z,100991.50
2023-09-27T17:57:18.601Z,100989.75
2023-09-27T17:59:46.646Z,100994.16
2023-09-27T18:02:13.760Z,100984.47
2023-09-27T18:04:40.910Z,100975.66
2023-09-27T18:07:07.542Z,101004.69
2023-09-27T18:09:37.686Z,100976.53
2023-09-27T18:12:05.246Z,101014.34
2023-09-27T18:14:31.965Z,101026.66
2023-09-27T18:17:00.846Z,101046.03
2023-09-27T18:19:27.589Z,101051.31
2023-09-27T18:21:54.393Z,101051.28
2023-09-27T18:24:21.114Z,101048.63
2023-09-27T18:26:47.763Z,101061.81
2023-09-27T18:29:14.684Z,101035.41
2023-09-27T18:31:43.295Z,101010.75
2023-09-27T18:34:10.401Z,101007.19
2023-09-27T18:36:37.052Z,101003.66
2023-09-27T18:39:06.171Z,100996.59
2023-09-27T18:41:35.178Z,101051.09
2023-09-27T18:44:06.809Z,101049.31
2023-09-27T18:46:36.654Z,101036.06
2023-09-27T18:49:03.827Z,101058.94
2023-09-27T18:51:30.543Z,101052.78
2023-09-27T18:53:59.442Z,101065.06
2023-09-27T18:56:26.625Z,101071.22
2023-09-27T18:58:55.895Z,101042.13
2023-09-27T19:01:24.975Z,101050.03
2023-09-27T19:03:52.440Z,101056.16
2023-09-27T19:06:19.825Z,101065.81
2023-09-27T19:08:47.173Z,101056.06
2023-09-27T19:11:21.137Z,101069.25
2023-09-27T19:13:48.513Z,101083.31
2023-09-27T19:16:15.310Z,101070.06
2023-09-27T19:18:43.674Z,101093.81
2023-09-27T19:21:11.574Z,101090.28
2023-09-27T19:23:40.371Z,101078.84
2023-09-27T19:26:09.175Z,101052.38
2023-09-27T19:28:37.462Z,101087.56
2023-09-27T19:31:04.590Z,101100.72
2023-09-27T19:33:31.550Z,101108.59
2023-09-27T19:36:01.142Z,101114.69
2023-09-27T19:38:29.947Z,101118.13
2023-09-27T19:40:56.744Z,101125.13
2023-09-27T19:43:24.880Z,101115.44
2023-09-27T19:45:54.600Z,101130.31
2023-09-27T19:48:26.745Z,101121.44
2023-09-27T19:50:53.340Z,101123.19
2023-09-27T19:53:20.100Z,101137.22
2023-09-27T19:55:47.702Z,101139.81
2023-09-27T19:58:17.518Z,101108.06
2023-09-27T20:00:46.199Z,101111.56
2023-09-27T20:03:14.054Z,101132.69
2023-09-27T20:05:40.797Z,101136.16
2023-09-27T20:08:07.792Z,101115.00
2023-09-27T20:10:37.847Z,101107.06
2023-09-27T20:13:07.719Z,101060.38
2023-09-27T20:15:37.417Z,101128.19
2023-09-27T20:18:04.752Z,101131.63
2023-09-27T20:20:31.744Z,101130.72
2023-09-27T20:23:01.074Z,101130.66
2023-09-27T20:25:30.103Z,101145.66
2023-09-27T20:28:00.065Z,101153.53
2023-09-27T20:30:26.811Z,101148.28
2023-09-27T20:32:54.232Z,101149.97
2023-09-27T20:35:24.870Z,101141.13
2023-09-27T20:37:51.783Z,101139.44
2023-09-27T20:40:18.744Z,101148.22
2023-09-27T20:42:55.027Z,101147.28
2023-09-27T20:45:22.354Z,101149.91
2023-09-27T20:47:52.749Z,101146.38
2023-09-27T20:50:19.565Z,101153.38
2023-09-27T20:52:46.201Z,101148.94
2023-09-27T20:55:12.941Z,101147.16
2023-09-27T20:57:40.359Z,101124.22
2023-09-27T21:00:13.382Z,101155.94
2023-09-27T21:02:42.839Z,101138.28
2023-09-27T21:05:09.631Z,101142.69
2023-09-27T21:07:37.419Z,101096.75
2023-09-27T21:10:05.054Z,101028.91
2023-09-27T21:12:31.698Z,101155.88
2023-09-27T21:14:58.522Z,101137.38
2023-09-27T21:17:28.261Z,101156.69
2023-09-27T21:19:57.809Z,101161.03
2023-09-27T21:22:26.689Z,101176.78
2023-09-27T21:24:55.815Z,101174.09
2023-09-27T21:27:22.442Z,101188.06
2023-09-27T21:29:51.476Z,101142.13
2023-09-27T21:32:20.489Z,101131.63
2023-09-27T21:34:49.155Z,101174.00
2023-09-27T21:37:16.429Z,101183.63
2023-09-27T21:39:43.122Z,101178.34
2023-09-27T21:42:10.097Z,101157.19
2023-09-27T21:44:38.988Z,101190.69
2023-09-27T21:47:05.614Z,101172.16
2023-09-27T21:49:34.512Z,101164.19
2023-09-27T21:52:01.501Z,101188.91
2023-09-27T21:54:28.218Z,101193.47
2023-09-27T21:56:57.315Z,101171.53
2023-09-27T21:59:23.978Z,101192.66
2023-09-27T22:01:50.661Z,101181.22
2023-09-27T22:04:17.606Z,101195.31
2023-09-27T22:06:46.496Z,101115.06
2023-09-27T22:09:18.591Z,101202.41
2023-09-27T22:11:46.215Z,101193.59
2023-09-27T22:14:13.006Z,101195.41
2023-09-27T22:16:39.921Z,101209.47
2023-09-27T22:19:13.256Z,101173.34
2023-09-27T22:21:44.156Z,101206.69
2023-09-27T22:24:13.886Z,101188.94
2023-09-27T22:26:42.241Z,101226.06
2023-09-27T22:29:11.406Z,101217.13
2023-09-27T22:31:39.685Z,101235.66
2023-09-27T22:34:24.069Z,101240.84
2023-09-27T22:36:52.288Z,101230.28
2023-09-27T22:39:20.549Z,101246.03
2023-09-27T22:41:49.782Z,101248.72
2023-09-27T22:44:20.459Z,101257.47
2023-09-27T22:46:48.847Z,101223.91
2023-09-27T22:49:20.663Z,101271.44
2023-09-27T22:51:50.857Z,101198.19
2023-09-27T22:54:20.321Z,101261.78
2023-09-27T22:56:48.878Z,101267.03
2023-09-27T22:59:22.691Z,101252.81
2023-09-27T23:01:56.093Z,101275.75
2023-09-27T23:04:24.319Z,101280.16
2023-09-27T23:07:02.856Z,101254.50
2023-09-27T23:09:36.003Z,101268.66
2023-09-27T23:12:18.762Z,101286.16
2023-09-27T23:15:04.500Z,101270.28
2023-09-27T23:17:32.092Z,101285.25
2023-09-27T23:20:01.858Z,101285.25
2023-09-27T23:22:48.634Z,101272.03
2023-09-27T23:25:35.461Z,101277.38
2023-09-27T23:28:04.372Z,101284.34
2023-09-27T23:30:31.161Z,101273.91
2023-09-27T23:33:03.188Z,101276.47
2023-09-27T23:35:32.968Z,101290.66
2023-09-27T23:38:11.144Z,101303.81
2023-09-27T23:40:42.927Z,101254.16
2023-09-27T23:43:17.379Z,101311.69
2023-09-27T23:45:46.745Z,101312.59
2023-09-27T23:48:13.718Z,101286.94
2023-09-27T23:50:41.713Z,101293.09
2023-09-27T23:53:08.377Z,101321.38
2023-09-27T23:55:42.452Z,101331.88
2023-09-27T23:58:13.767Z,101315.91
